createdAt,value
2023-04-29T00:01:52.076Z,48.49
2023-04-29T00:04:20.264Z,47.55
2023-04-29T00:06:47.875Z,46.98
2023-04-29T00:09:15.843Z,47.62
2023-04-29T00:11:43.527Z,47.80
2023-04-29T00:14:10.998Z,48.21
2023-04-29T00:16:38.646Z,47.96
2023-04-29T00:19:06.418Z,46.95
2023-04-29T00:21:33.845Z,47.41
2023-04-29T00:24:01.296Z,47.29
2023-04-29T00:26:29.192Z,47.61
2023-04-29T00:28:56.709Z,47.04
2023-04-29T00:31:24.376Z,46.65
2023-04-29T00:33:52.137Z,46.70
2023-04-29T00:36:19.591Z,47.01
2023-04-29T00:38:47.000Z,47.33
2023-04-29T00:41:14.971Z,47.52
2023-04-29T00:43:43.357Z,47.41
2023-04-29T00:46:11.578Z,47.56
2023-04-29T00:48:39.431Z,46.86
2023-04-29T00:51:07.416Z,47.24
2023-04-29T00:53:35.134Z,47.75
2023-04-29T00:56:03.196Z,47.19
2023-04-29T00:58:35.213Z,46.82
2023-04-29T01:01:03.890Z,47.66
2023-04-29T01:03:32.085Z,48.10
2023-04-29T01:06:07.166Z,47.99
2023-04-29T01:08:48.672Z,48.16
2023-04-29T01:11:20.075Z,48.10
2023-04-29T01:13:53.957Z,48.26
2023-04-29T01:16:25.701Z,48.02
2023-04-29T01:18:59.682Z,48.46
2023-04-29T01:21:28.507Z,48.89
2023-04-29T01:23:56.476Z,48.81
2023-04-29T01:26:24.583Z,48.92
2023-04-29T01:29:17.114Z,49.19
2023-04-29T01:31:49.626Z,49.69
2023-04-29T01:34:34.524Z,50.49
2023-04-29T01:37:22.836Z,50.62
2023-04-29T01:40:13.206Z,49.80
2023-04-29T01:42:47.088Z,50.05
2023-04-29T01:45:21.580Z,49.85
2023-04-29T01:47:52.812Z,49.47
2023-04-29T01:50:21.281Z,49.00
2023-04-29T01:52:49.353Z,48.97
2023-04-29T01:55:16.947Z,49.07
2023-04-29T01:57:44.811Z,48.69
2023-04-29T02:00:13.339Z,49.19
2023-04-29T02:02:41.081Z,48.35
2023-04-29T02:05:10.157Z,48.23
2023-04-29T02:07:41.939Z,48.03
2023-04-29T02:10:10.684Z,47.04
2023-04-29T02:12:38.530Z,47.69
2023-04-29T02:15:06.777Z,47.28
2023-04-29T02:17:34.675Z,47.46
2023-04-29T02:20:02.441Z,47.10
2023-04-29T02:22:29.880Z,46.79
2023-04-29T02:24:58.332Z,47.18
2023-04-29T02:27:26.619Z,47.11
2023-04-29T02:29:54.922Z,47.33
2023-04-29T02:32:22.630Z,46.81
2023-04-29T02:34:50.466Z,46.87
2023-04-29T02:37:18.228Z,46.85
2023-04-29T02:39:47.107Z,46.85
2023-04-29T02:42:14.841Z,46.55
2023-04-29T02:44:42.658Z,46.20
2023-04-29T02:47:10.231Z,45.98
2023-04-29T02:49:38.528Z,46.44
2023-04-29T02:52:05.921Z,46.97
2023-04-29T02:54:34.185Z,46.84
2023-04-29T02:57:01.905Z,46.62
2023-04-29T02:59:29.284Z,47.12
2023-04-29T03:01:57.067Z,47.07
2023-04-29T03:04:25.559Z,47.46
2023-04-29T03:06:56.102Z,47.83
2023-04-29T03:09:26.462Z,47.89
2023-04-29T03:11:54.227Z,47.67
2023-04-29T03:14:21.670Z,47.81
2023-04-29T03:16:49.268Z,47.53
2023-04-29T03:19:17.600Z,47.10
2023-04-29T03:21:45.305Z,46.97
2023-04-29T03:24:13.708Z,47.04
2023-04-29T03:26:42.925Z,46.80
2023-04-29T03:29:10.394Z,46.73
2023-04-29T03:31:37.907Z,46.40
2023-04-29T03:34:05.673Z,46.53
2023-04-29T03:36:33.733Z,46.53
2023-04-29T03:39:01.306Z,46.35
2023-04-29T03:41:29.683Z,46.21
2023-04-29T03:44:00.741Z,46.77
2023-04-29T03:46:28.759Z,47.47
2023-04-29T03:48:56.511Z,47.41
2023-04-29T03:51:24.446Z,47.46
2023-04-29T03:53:56.226Z,47.41
2023-04-29T03:56:25.478Z,47.74
2023-04-29T03:58:53.434Z,47.52
2023-04-29T04:01:22.090Z,46.31
2023-04-29T04:03:50.034Z,47.10
2023-04-29T04:06:17.540Z,47.24
2023-04-29T04:08:45.078Z,46.97
2023-04-29T04:11:15.101Z,46.39
2023-04-29T04:13:43.265Z,46.16
2023-04-29T04:16:11.155Z,45.93
2023-04-29T04:18:39.129Z,45.77
2023-04-29T04:21:11.241Z,45.75
2023-04-29T04:23:42.485Z,45.59
2023-04-29T04:26:10.261Z,45.49
2023-04-29T04:28:40.401Z,45.89
2023-04-29T04:31:09.053Z,45.97
2023-04-29T04:33:36.765Z,46.02
2023-04-29T04:36:04.873Z,45.87
2023-04-29T04:38:33.168Z,46.03
2023-04-29T04:41:02.587Z,46.51
2023-04-29T04:43:30.771Z,46.35
2023-04-29T04:45:58.922Z,46.56
2023-04-29T04:48:26.448Z,46.84
2023-04-29T04:50:54.376Z,46.27
2023-04-29T04:53:22.525Z,46.29
2023-04-29T04:55:50.160Z,46.37
2023-04-29T04:58:18.301Z,46.29
2023-04-29T05:00:46.080Z,46.27
2023-04-29T05:03:14.335Z,46.65
2023-04-29T05:05:42.151Z,46.46
2023-04-29T05:08:09.710Z,45.73
2023-04-29T05:10:37.571Z,45.74
2023-04-29T05:13:06.362Z,45.74
2023-04-29T05:15:35.374Z,45.36
2023-04-29T05:18:03.063Z,45.48
2023-04-29T05:20:31.109Z,45.19
2023-04-29T05:22:59.297Z,45.39
2023-04-29T05:25:26.863Z,45.49
2023-04-29T05:27:55.134Z,45.22
2023-04-29T05:30:23.038Z,45.62
2023-04-29T05:32:50.610Z,46.01
2023-04-29T05:35:18.664Z,46.16
2023-04-29T05:37:46.631Z,46.10
2023-04-29T05:40:15.717Z,46.26
2023-04-29T05:42:43.763Z,46.02
2023-04-29T05:45:12.492Z,46.34
2023-04-29T05:47:40.319Z,46.22
2023-04-29T05:50:08.401Z,46.54
2023-04-29T05:52:47.993Z,46.70
2023-04-29T05:55:30.682Z,45.79
2023-04-29T05:57:58.457Z,45.50
2023-04-29T06:00:25.920Z,45.20
2023-04-29T06:02:58.964Z,44.81
2023-04-29T06:05:28.024Z,44.58
2023-04-29T06:07:56.970Z,44.12
2023-04-29T06:10:24.629Z,44.42
2023-04-29T06:12:52.469Z,44.31
2023-04-29T06:15:20.331Z,43.80
2023-04-29T06:17:48.782Z,42.83
2023-04-29T06:20:18.153Z,41.91
2023-04-29T06:22:46.306Z,41.35
2023-04-29T06:25:14.299Z,41.20
2023-04-29T06:27:41.861Z,40.88
2023-04-29T06:30:09.944Z,41.42
2023-04-29T06:32:39.461Z,41.84
2023-04-29T06:35:07.662Z,40.97
2023-04-29T06:37:37.959Z,40.68
2023-04-29T06:40:06.981Z,40.55
2023-04-29T06:42:34.881Z,40.55
2023-04-29T06:45:03.391Z,41.14
2023-04-29T06:47:35.075Z,40.93
2023-04-29T06:50:05.173Z,40.69
2023-04-29T06:52:33.486Z,40.88
2023-04-29T06:55:01.057Z,41.24
2023-04-29T06:57:28.883Z,41.36
2023-04-29T06:59:56.451Z,41.44
2023-04-29T07:02:25.578Z,41.24
2023-04-29T07:04:53.900Z,41.41
2023-04-29T07:07:21.419Z,41.29
2023-04-29T07:09:52.150Z,41.06
2023-04-29T07:12:21.337Z,41.23
2023-04-29T07:14:48.877Z,41.08
2023-04-29T07:17:16.594Z,40.81
2023-04-29T07:19:44.497Z,40.99
2023-04-29T07:22:12.634Z,40.95
2023-04-29T07:24:40.378Z,40.83
2023-04-29T07:27:08.196Z,40.81
2023-04-29T07:29:37.060Z,40.31
2023-04-29T07:32:04.846Z,40.45
2023-04-29T07:34:35.806Z,40.45
2023-04-29T07:37:03.338Z,40.24
2023-04-29T07:39:31.790Z,39.62
2023-04-29T07:42:00.349Z,39.08
2023-04-29T07:44:27.833Z,38.97
2023-04-29T07:46:55.600Z,38.67
2023-04-29T07:49:23.809Z,38.27
2023-04-29T07:51:51.974Z,38.12
2023-04-29T07:54:22.528Z,38.12
2023-04-29T07:56:50.532Z,38.35
2023-04-29T07:59:20.427Z,36.92
2023-04-29T08:01:48.027Z,37.19
2023-04-29T08:04:16.052Z,36.40
2023-04-29T08:06:44.555Z,36.21
2023-04-29T08:09:12.240Z,35.67
2023-04-29T08:11:42.611Z,35.68
2023-04-29T08:14:12.467Z,34.93
2023-04-29T08:16:40.043Z,35.32
2023-04-29T08:19:08.088Z,35.10
2023-04-29T08:21:35.660Z,34.84
2023-04-29T08:24:03.177Z,34.76
2023-04-29T08:26:31.035Z,34.78
2023-04-29T08:28:58.574Z,34.83
2023-04-29T08:31:26.170Z,34.76
2023-04-29T08:33:53.985Z,34.94
2023-04-29T08:36:21.544Z,34.85
2023-04-29T08:38:52.616Z,34.05
2023-04-29T08:41:20.555Z,34.00
2023-04-29T08:43:47.926Z,34.32
2023-04-29T08:46:15.729Z,32.88
2023-04-29T08:48:45.226Z,32.82
2023-04-29T08:51:16.143Z,32.28
2023-04-29T08:53:43.838Z,32.18
2023-04-29T08:56:28.138Z,31.90
2023-04-29T08:58:58.871Z,31.88
2023-04-29T09:01:30.012Z,32.69
2023-04-29T09:04:20.855Z,32.45
2023-04-29T09:06:48.699Z,32.12
2023-04-29T09:09:17.870Z,32.24
2023-04-29T09:11:47.483Z,32.15
2023-04-29T09:14:15.307Z,32.44
2023-04-29T09:16:46.862Z,32.67
2023-04-29T09:19:30.901Z,32.32
2023-04-29T09:21:59.174Z,32.54
2023-04-29T09:24:30.642Z,32.61
2023-04-29T09:26:59.164Z,32.74
2023-04-29T09:29:27.227Z,32.66
2023-04-29T09:31:54.759Z,32.42
2023-04-29T09:34:36.004Z,32.09
2023-04-29T09:37:03.687Z,32.10
2023-04-29T09:39:39.279Z,32.17
2023-04-29T09:42:09.585Z,32.24
2023-04-29T09:44:37.136Z,31.48
2023-04-29T09:47:09.222Z,31.45
2023-04-29T09:49:41.082Z,32.07
2023-04-29T09:52:13.474Z,31.30
2023-04-29T09:54:42.281Z,30.32
2023-04-29T09:57:11.584Z,30.46
2023-04-29T09:59:40.050Z,35.05
2023-04-29T10:02:18.893Z,30.68
2023-04-29T10:04:57.351Z,29.10
2023-04-29T10:07:26.949Z,29.24
2023-04-29T10:09:55.102Z,29.46
2023-04-29T10:12:22.618Z,29.47
2023-04-29T10:15:24.964Z,29.41
2023-04-29T10:17:52.537Z,29.92
2023-04-29T10:20:23.247Z,29.66
2023-04-29T10:22:57.914Z,29.75
2023-04-29T10:25:28.028Z,31.49
2023-04-29T10:27:56.221Z,29.90
2023-04-29T10:30:24.014Z,29.63
2023-04-29T10:32:52.729Z,29.85
2023-04-29T10:35:23.435Z,29.90
2023-04-29T10:37:52.870Z,29.82
2023-04-29T10:40:40.601Z,29.80
2023-04-29T10:43:08.070Z,30.20
2023-04-29T10:45:36.536Z,30.27
2023-04-29T10:48:05.893Z,30.37
2023-04-29T10:50:35.650Z,29.86
2023-04-29T10:53:06.439Z,29.48
2023-04-29T10:55:37.934Z,29.16
2023-04-29T10:58:06.234Z,29.56
2023-04-29T11:00:35.010Z,29.24
2023-04-29T11:03:06.133Z,29.20
2023-04-29T11:05:35.612Z,29.67
2023-04-29T11:08:13.397Z,29.50
2023-04-29T11:10:44.541Z,29.65
2023-04-29T11:13:21.864Z,28.65
2023-04-29T11:15:51.381Z,29.18
2023-04-29T11:18:19.017Z,29.66
2023-04-29T11:21:04.929Z,29.73
2023-04-29T11:23:45.095Z,29.44
2023-04-29T11:26:12.473Z,29.38
2023-04-29T11:28:42.432Z,29.69
2023-04-29T11:31:10.079Z,32.60
2023-04-29T11:33:37.656Z,30.17
2023-04-29T11:36:05.664Z,30.28
2023-04-29T11:38:33.508Z,29.92
2023-04-29T11:41:01.219Z,29.65
2023-04-29T11:43:28.872Z,30.46
2023-04-29T11:45:56.497Z,29.93
2023-04-29T11:48:26.631Z,29.68
2023-04-29T11:50:57.875Z,30.30
2023-04-29T11:53:27.814Z,30.39
2023-04-29T11:55:56.162Z,30.01
2023-04-29T11:58:24.499Z,30.30
2023-04-29T12:00:51.975Z,30.31
2023-04-29T12:03:21.083Z,30.42
2023-04-29T12:05:56.621Z,30.27
2023-04-29T12:08:25.636Z,30.11
2023-04-29T12:10:55.352Z,29.42
2023-04-29T12:13:30.153Z,29.80
2023-04-29T12:15:58.585Z,30.85
2023-04-29T12:18:27.773Z,31.74
2023-04-29T12:20:56.025Z,30.18
2023-04-29T12:23:26.633Z,30.33
2023-04-29T12:25:59.060Z,29.60
2023-04-29T12:28:27.443Z,29.58
2023-04-29T12:30:55.098Z,29.63
2023-04-29T12:33:27.283Z,29.17
2023-04-29T12:35:57.023Z,29.69
2023-04-29T12:38:28.472Z,29.94
2023-04-29T12:40:58.100Z,31.21
2023-04-29T12:43:29.484Z,30.48
2023-04-29T12:46:07.813Z,29.61
2023-04-29T12:48:43.767Z,31.92
2023-04-29T12:51:12.002Z,30.56
2023-04-29T12:53:39.640Z,30.27
2023-04-29T12:56:07.400Z,29.84
2023-04-29T12:58:35.192Z,29.70
2023-04-29T13:01:03.341Z,30.02
2023-04-29T13:03:31.038Z,29.99
2023-04-29T13:05:59.133Z,29.61
2023-04-29T13:08:27.393Z,29.42
2023-04-29T13:10:54.901Z,29.39
2023-04-29T13:13:22.602Z,29.71
2023-04-29T13:15:49.976Z,29.70
2023-04-29T13:18:17.459Z,29.61
2023-04-29T13:20:45.118Z,29.26
2023-04-29T13:23:12.653Z,29.57
2023-04-29T13:25:40.138Z,29.82
2023-04-29T13:28:08.120Z,29.88
2023-04-29T13:30:36.132Z,30.02
2023-04-29T13:33:09.719Z,30.82
2023-04-29T13:35:41.650Z,30.83
2023-04-29T13:38:09.303Z,30.44
2023-04-29T13:40:41.706Z,30.65
2023-04-29T13:43:14.931Z,30.02
2023-04-29T13:45:47.730Z,29.89
2023-04-29T14:01:17.032Z,31.23
2023-04-29T14:03:36.708Z,32.53
2023-04-29T14:06:04.434Z,31.69
2023-04-29T14:08:31.850Z,31.37
2023-04-29T14:10:59.695Z,30.92
2023-04-29T14:13:27.111Z,30.54
2023-04-29T14:15:54.607Z,31.56
2023-04-29T14:18:22.364Z,31.05
2023-04-29T14:20:49.796Z,31.28
2023-04-29T14:23:17.236Z,30.34
2023-04-29T14:25:44.971Z,31.54
2023-04-29T14:28:12.691Z,31.30
2023-04-29T14:30:41.046Z,30.17
2023-04-29T14:33:08.722Z,31.74
2023-04-29T14:35:36.054Z,30.63
2023-04-29T14:38:03.657Z,32.45
2023-04-29T14:40:31.334Z,32.00
2023-04-29T14:42:58.868Z,32.66
2023-04-29T14:45:26.317Z,32.17
2023-04-29T14:47:54.107Z,32.33
2023-04-29T14:50:23.217Z,32.06
2023-04-29T14:52:50.836Z,31.77
2023-04-29T14:55:18.522Z,31.80
2023-04-29T14:57:45.919Z,31.86
2023-04-29T15:00:15.022Z,31.82
2023-04-29T15:02:42.741Z,31.59
2023-04-29T15:05:10.198Z,30.33
2023-04-29T15:07:37.651Z,30.35
2023-04-29T15:10:09.265Z,30.46
2023-04-29T15:12:36.659Z,31.60
2023-04-29T15:15:04.838Z,30.66
2023-04-29T15:17:32.634Z,30.61
2023-04-29T15:20:00.059Z,30.70
2023-04-29T15:22:27.474Z,31.64
2023-04-29T15:24:55.475Z,31.39
2023-04-29T15:27:22.858Z,31.31
2023-04-29T15:29:53.194Z,30.94
2023-04-29T15:32:21.219Z,31.42
2023-04-29T15:34:48.669Z,30.74
2023-04-29T15:37:16.089Z,30.89
2023-04-29T15:39:44.018Z,31.44
2023-04-29T15:42:11.476Z,31.30
2023-04-29T15:44:38.829Z,31.33
2023-04-29T15:47:06.547Z,30.47
2023-04-29T15:49:34.156Z,31.07
2023-04-29T15:52:01.715Z,31.14
2023-04-29T15:54:29.387Z,31.01
2023-04-29T15:56:56.850Z,31.42
2023-04-29T15:59:24.514Z,32.38
2023-04-29T16:01:52.333Z,32.03
2023-04-29T16:04:20.439Z,31.93
2023-04-29T16:06:47.876Z,32.76
2023-04-29T16:09:15.501Z,32.07
2023-04-29T16:11:43.419Z,32.25
2023-04-29T16:14:10.806Z,32.08
2023-04-29T16:16:38.225Z,31.83
2023-04-29T16:19:05.915Z,32.90
2023-04-29T16:21:34.558Z,32.96
2023-04-29T16:24:02.195Z,32.70
2023-04-29T16:26:30.293Z,32.78
2023-04-29T16:28:57.979Z,32.87
2023-04-29T16:31:25.454Z,33.05
2023-04-29T16:33:55.395Z,33.05
2023-04-29T16:36:23.343Z,33.32
2023-04-29T16:38:51.530Z,33.14
2023-04-29T16:41:19.266Z,32.77
2023-04-29T16:43:47.115Z,32.87
2023-04-29T16:46:14.682Z,33.81
2023-04-29T16:48:42.448Z,33.47
2023-04-29T16:51:10.046Z,33.23
2023-04-29T16:53:37.512Z,33.87
2023-04-29T16:56:05.931Z,33.31
2023-04-29T16:58:33.384Z,33.14
2023-04-29T17:01:00.792Z,34.01
2023-04-29T17:03:28.470Z,33.48
2023-04-29T17:05:56.292Z,33.68
2023-04-29T17:08:24.365Z,34.56
2023-04-29T17:10:52.117Z,34.42
2023-04-29T17:13:20.241Z,34.12
2023-04-29T17:15:47.848Z,34.16
2023-04-29T17:18:16.001Z,34.39
2023-04-29T17:20:43.774Z,34.70
2023-04-29T17:23:11.231Z,34.37
2023-04-29T17:25:38.952Z,34.66
2023-04-29T17:28:06.657Z,34.20
2023-04-29T17:30:34.225Z,35.19
2023-04-29T17:33:05.637Z,34.78
2023-04-29T17:35:33.675Z,35.27
2023-04-29T17:38:01.157Z,35.69
2023-04-29T17:40:28.862Z,35.36
2023-04-29T17:42:56.322Z,35.68
2023-04-29T17:45:23.706Z,36.02
2023-04-29T17:47:51.405Z,36.19
2023-04-29T17:50:18.884Z,36.16
2023-04-29T17:52:46.544Z,36.19
2023-04-29T17:55:14.305Z,36.55
2023-04-29T17:57:42.045Z,36.80
2023-04-29T18:00:10.705Z,37.06
2023-04-29T18:02:38.697Z,36.81
2023-04-29T18:05:06.509Z,37.19
2023-04-29T18:07:33.932Z,37.48
2023-04-29T18:10:01.607Z,37.64
2023-04-29T18:12:29.081Z,37.53
2023-04-29T18:14:56.443Z,37.46
2023-04-29T18:17:24.140Z,37.45
2023-04-29T18:19:51.568Z,37.44
2023-04-29T18:22:19.100Z,38.13
2023-04-29T18:24:48.434Z,38.49
2023-04-29T18:27:15.868Z,38.55
2023-04-29T18:29:44.953Z,39.01
2023-04-29T18:32:12.672Z,39.33
2023-04-29T18:34:40.154Z,39.42
2023-04-29T18:37:07.551Z,39.87
2023-04-29T18:39:35.288Z,40.32
2023-04-29T18:42:04.457Z,40.58
2023-04-29T18:44:32.934Z,40.88
2023-04-29T18:47:00.869Z,41.23
2023-04-29T18:49:28.335Z,41.31
2023-04-29T18:51:55.982Z,41.63
2023-04-29T18:54:23.681Z,41.85
2023-04-29T18:56:51.764Z,41.80
2023-04-29T18:59:19.756Z,42.18
2023-04-29T19:01:48.188Z,42.55
2023-04-29T19:04:16.518Z,42.88
2023-04-29T19:06:44.492Z,43.26
2023-04-29T19:09:13.659Z,43.50
2023-04-29T19:11:42.059Z,43.66
2023-04-29T19:14:09.435Z,43.63
2023-04-29T19:16:37.449Z,43.84
2023-04-29T19:19:05.062Z,44.43
2023-04-29T19:21:36.087Z,44.70
2023-04-29T19:24:03.938Z,44.36
2023-04-29T19:26:33.872Z,44.29
2023-04-29T19:29:02.539Z,44.48
2023-04-29T19:31:30.515Z,44.56
2023-04-29T19:33:58.048Z,44.69
2023-04-29T19:36:25.522Z,45.10
2023-04-29T19:38:53.276Z,45.03
2023-04-29T19:41:20.879Z,45.08
2023-04-29T19:43:48.559Z,45.11
2023-04-29T19:46:16.696Z,44.84
2023-04-29T19:48:44.525Z,44.92
2023-04-29T19:51:11.955Z,45.04
2023-04-29T19:53:39.669Z,45.13
2023-04-29T19:56:07.166Z,45.24
2023-04-29T19:58:34.647Z,45.43
2023-04-29T20:01:02.404Z,45.22
2023-04-29T20:03:30.507Z,45.46
2023-04-29T20:05:59.226Z,45.53
2023-04-29T20:08:26.856Z,45.74
2023-04-29T20:10:54.590Z,45.79
2023-04-29T20:13:22.000Z,46.13
2023-04-29T20:15:49.870Z,46.33
2023-04-29T20:18:18.021Z,46.60
2023-04-29T20:20:45.601Z,46.40
2023-04-29T20:23:13.127Z,46.52
2023-04-29T20:25:41.297Z,46.30
2023-04-29T20:28:09.327Z,46.48
2023-04-29T20:30:36.745Z,46.62
2023-04-29T20:33:05.320Z,46.39
2023-04-29T20:35:33.766Z,46.28
2023-04-29T20:38:01.467Z,46.43
2023-04-29T20:40:29.193Z,46.64
2023-04-29T20:42:57.285Z,46.95
2023-04-29T20:45:24.884Z,46.94
2023-04-29T20:47:52.821Z,46.75
2023-04-29T20:50:20.345Z,46.87
2023-04-29T20:52:49.416Z,46.96
2023-04-29T20:55:17.298Z,47.14
2023-04-29T20:57:44.746Z,47.43
2023-04-29T21:00:12.610Z,47.66
2023-04-29T21:02:40.378Z,47.84
2023-04-29T21:05:10.008Z,47.96
2023-04-29T21:07:37.984Z,48.44
2023-04-29T21:10:06.523Z,48.47
2023-04-29T21:12:33.957Z,48.33
2023-04-29T21:15:01.415Z,48.35
2023-04-29T21:17:30.053Z,48.40
2023-04-29T21:19:57.449Z,48.51
2023-04-29T21:22:24.858Z,48.77
2023-04-29T21:24:52.510Z,48.69
2023-04-29T21:27:20.904Z,48.98
2023-04-29T21:29:48.548Z,49.16
2023-04-29T21:32:21.440Z,48.85
2023-04-29T21:34:49.016Z,48.91
2023-04-29T21:37:16.732Z,48.64
2023-04-29T21:39:44.121Z,48.76
2023-04-29T21:42:13.500Z,48.65
2023-04-29T21:44:41.249Z,48.44
2023-04-29T21:47:08.685Z,48.77
2023-04-29T21:49:36.540Z,48.55
2023-04-29T21:52:04.288Z,48.32
2023-04-29T21:54:31.679Z,48.42
2023-04-29T21:56:59.491Z,48.51
2023-04-29T21:59:27.302Z,48.40
2023-04-29T22:02:00.458Z,48.11
2023-04-29T22:04:28.296Z,48.03
2023-04-29T22:06:56.884Z,47.58
2023-04-29T22:09:24.594Z,47.74
2023-04-29T22:11:52.465Z,47.86
2023-04-29T22:14:19.882Z,47.40
2023-04-29T22:16:47.376Z,47.72
2023-04-29T22:19:15.119Z,48.03
2023-04-29T22:21:43.081Z,48.39
2023-04-29T22:24:10.524Z,48.46
2023-04-29T22:26:38.189Z,48.37
2023-04-29T22:29:05.870Z,48.27
2023-04-29T22:31:33.579Z,48.37
2023-04-29T22:34:01.312Z,48.68
2023-04-29T22:36:28.790Z,48.61
2023-04-29T22:38:56.173Z,48.71
2023-04-29T22:41:23.829Z,48.46
2023-04-29T22:43:56.939Z,48.42
2023-04-29T22:46:25.463Z,48.06
2023-04-29T22:48:52.954Z,47.89
2023-04-29T22:51:20.618Z,47.88
2023-04-29T22:53:48.280Z,47.83
2023-04-29T22:56:15.649Z,48.01
2023-04-29T22:58:42.987Z,48.02
2023-04-29T23:01:11.996Z,47.74
2023-04-29T23:03:39.777Z,47.55
2023-04-29T23:06:07.697Z,47.57
2023-04-29T23:08:35.449Z,47.71
2023-04-29T23:11:02.846Z,48.08
2023-04-29T23:13:30.310Z,48.26
2023-04-29T23:16:00.163Z,48.50
2023-04-29T23:18:27.663Z,48.56
2023-04-29T23:20:56.266Z,48.75
2023-04-29T23:23:24.032Z,49.02
2023-04-29T23:25:51.468Z,48.80
2023-04-29T23:28:18.857Z,48.71
2023-04-29T23:30:47.925Z,49.05
2023-04-29T23:33:15.403Z,49.12
2023-04-29T23:35:49.602Z,48.95
2023-04-29T23:38:18.101Z,49.22
2023-04-29T23:40:46.414Z,49.29
2023-04-29T23:43:17.188Z,49.04
2023-04-29T23:45:45.909Z,48.85
2023-04-29T23:48:13.627Z,48.99
2023-04-29T23:50:41.101Z,49.01
2023-04-29T23:53:08.898Z,49.07
2023-04-29T23:55:36.307Z,48.59
2023-04-29T23:58:04.048Z,49.05
